createdAt,value
2022-09-23T00:01:02.291Z,0
2022-09-23T00:02:19.315Z,0
2022-09-23T00:03:36.265Z,0
2022-09-23T00:04:53.255Z,0
2022-09-23T00:06:10.211Z,0
2022-09-23T00:07:27.214Z,0
2022-09-23T00:08:44.263Z,0
2022-09-23T00:10:01.327Z,0
2022-09-23T00:11:18.233Z,0
2022-09-23T00:12:35.231Z,0
2022-09-23T00:13:52.247Z,0
2022-09-23T00:15:09.284Z,0
2022-09-23T00:16:26.292Z,0
2022-09-23T00:17:43.696Z,0
2022-09-23T00:19:01.335Z,0
2022-09-23T00:20:18.239Z,0
2022-09-23T00:21:35.219Z,0
2022-09-23T00:22:52.249Z,0
2022-09-23T00:24:09.342Z,0
2022-09-23T00:25:26.274Z,0
2022-09-23T00:26:43.291Z,0
2022-09-23T00:28:00.265Z,0
2022-09-23T00:29:17.316Z,0
2022-09-23T00:30:34.326Z,0
2022-09-23T00:31:51.266Z,0
2022-09-23T00:33:08.300Z,0
2022-09-23T00:34:25.238Z,0
2022-09-23T00:35:42.269Z,0
2022-09-23T00:36:59.254Z,0
2022-09-23T00:38:16.258Z,0
2022-09-23T00:39:33.333Z,0
2022-09-23T00:40:50.420Z,0
2022-09-23T00:42:07.297Z,0
2022-09-23T00:43:24.280Z,0
2022-09-23T00:44:41.343Z,0
2022-09-23T00:45:58.346Z,0
2022-09-23T00:47:15.340Z,0
2022-09-23T00:48:32.284Z,0
2022-09-23T00:49:49.285Z,0
2022-09-23T00:51:06.347Z,0
2022-09-23T00:52:23.323Z,0.3
2022-09-23T00:53:40.285Z,0
2022-09-23T00:54:57.298Z,0
2022-09-23T00:56:14.293Z,0
2022-09-23T00:57:31.321Z,0
2022-09-23T00:58:48.289Z,0
2022-09-23T01:00:05.423Z,0
2022-09-23T01:01:22.482Z,0
2022-09-23T01:02:39.451Z,0
2022-09-23T01:03:56.328Z,0
2022-09-23T01:05:13.363Z,0
2022-09-23T01:06:30.325Z,0
2022-09-23T01:07:47.327Z,0
2022-09-23T01:09:04.322Z,0
2022-09-23T01:10:21.360Z,0
2022-09-23T01:11:38.302Z,0
2022-09-23T01:12:55.315Z,0
2022-09-23T01:14:12.330Z,0
2022-09-23T01:15:29.452Z,0
2022-09-23T01:16:46.376Z,0
2022-09-23T01:18:03.346Z,0
2022-09-23T01:19:20.331Z,0
2022-09-23T01:20:37.384Z,0
2022-09-23T01:21:54.324Z,0
2022-09-23T01:23:11.371Z,0
2022-09-23T01:24:28.333Z,0
2022-09-23T01:25:45.402Z,0
2022-09-23T01:27:02.342Z,0
2022-09-23T01:28:19.325Z,0
2022-09-23T01:29:36.378Z,0
2022-09-23T01:30:53.467Z,0
2022-09-23T01:32:10.341Z,0
2022-09-23T01:33:27.355Z,0
2022-09-23T01:34:44.336Z,0
2022-09-23T01:36:01.468Z,0
2022-09-23T01:37:18.355Z,0
2022-09-23T01:38:35.361Z,0
2022-09-23T01:39:52.362Z,0
2022-09-23T01:41:09.366Z,0
2022-09-23T01:42:26.358Z,0
2022-09-23T01:43:43.353Z,0
2022-09-23T01:45:00.420Z,0
2022-09-23T01:46:17.379Z,0
2022-09-23T01:47:34.359Z,0
2022-09-23T01:48:51.388Z,0
2022-09-23T01:50:08.417Z,0
2022-09-23T01:51:25.371Z,0
2022-09-23T01:52:42.371Z,0
2022-09-23T01:53:59.378Z,0
2022-09-23T01:55:17.000Z,0
2022-09-23T01:56:34.382Z,0
2022-09-23T01:57:51.393Z,0
2022-09-23T01:59:08.399Z,0
2022-09-23T02:00:25.420Z,0
2022-09-23T02:01:42.487Z,0
2022-09-23T02:02:59.377Z,0
2022-09-23T02:04:16.500Z,0
2022-09-23T02:05:33.379Z,0
2022-09-23T02:06:50.401Z,0
2022-09-23T02:08:07.948Z,0
2022-09-23T02:09:25.392Z,0.11
2022-09-23T02:10:42.385Z,0
2022-09-23T02:11:59.392Z,0
2022-09-23T02:13:16.414Z,0
2022-09-23T02:14:33.418Z,0
2022-09-23T02:15:50.419Z,0.17
2022-09-23T02:17:07.461Z,0
2022-09-23T02:18:24.457Z,0
2022-09-23T02:19:41.662Z,0.16
2022-09-23T02:20:58.420Z,0.19
2022-09-23T02:22:15.432Z,0.08
2022-09-23T02:23:32.438Z,0
2022-09-23T02:24:49.448Z,0.12
2022-09-23T02:26:06.451Z,0
2022-09-23T02:27:23.437Z,0
2022-09-23T02:28:40.482Z,0
2022-09-23T02:29:57.430Z,0.17
2022-09-23T02:31:14.459Z,0.17
2022-09-23T02:32:31.537Z,0.14
2022-09-23T02:33:48.459Z,0
2022-09-23T02:35:05.469Z,0.17
2022-09-23T02:36:22.458Z,0
2022-09-23T02:37:39.433Z,0
2022-09-23T02:38:56.471Z,0
2022-09-23T02:40:13.519Z,0
2022-09-23T02:41:30.420Z,0
2022-09-23T02:42:47.423Z,0
2022-09-23T02:44:04.455Z,0
2022-09-23T02:45:21.477Z,0
2022-09-23T02:46:38.448Z,0
2022-09-23T02:47:55.480Z,0
2022-09-23T02:49:12.494Z,0
2022-09-23T02:50:29.522Z,0
2022-09-23T02:51:46.498Z,0
2022-09-23T02:53:03.475Z,0
2022-09-23T02:54:20.487Z,0
2022-09-23T02:55:37.470Z,0
2022-09-23T03:00:54.567Z,0.14
2022-09-23T03:02:11.562Z,0
2022-09-23T03:03:28.512Z,0
2022-09-23T03:04:45.468Z,0
2022-09-23T03:06:02.497Z,0
2022-09-23T03:07:19.497Z,0
2022-09-23T03:08:36.467Z,0
2022-09-23T03:09:53.516Z,0.1
2022-09-23T03:11:10.482Z,0
2022-09-23T03:12:27.524Z,0
2022-09-23T03:13:44.476Z,0.16
2022-09-23T03:15:01.508Z,0.16
2022-09-23T03:16:18.543Z,0
2022-09-23T03:17:35.600Z,0
2022-09-23T03:18:52.498Z,0
2022-09-23T03:20:09.485Z,0
2022-09-23T03:21:26.504Z,0
2022-09-23T03:22:43.544Z,0
2022-09-23T03:24:00.499Z,0
2022-09-23T03:25:17.490Z,0
2022-09-23T03:26:34.505Z,0
2022-09-23T03:27:51.526Z,0
2022-09-23T03:29:08.573Z,0
2022-09-23T03:30:25.551Z,0
2022-09-23T03:31:42.637Z,0
2022-09-23T03:32:59.497Z,0
2022-09-23T03:34:16.559Z,0
2022-09-23T03:35:33.559Z,0
2022-09-23T03:36:50.519Z,0
2022-09-23T03:38:07.544Z,0
2022-09-23T03:39:24.519Z,0
2022-09-23T03:40:41.697Z,0
2022-09-23T03:41:58.515Z,0
2022-09-23T03:43:15.541Z,0
2022-09-23T03:44:32.536Z,0
2022-09-23T03:45:49.626Z,0
2022-09-23T03:47:06.535Z,0
2022-09-23T03:48:23.525Z,0
2022-09-23T03:49:40.697Z,0
2022-09-23T03:50:57.583Z,0
2022-09-23T03:52:14.556Z,0
2022-09-23T03:53:31.540Z,0
2022-09-23T03:54:48.536Z,0
2022-09-23T03:56:05.565Z,0
2022-09-23T03:57:22.559Z,0
2022-09-23T03:58:39.662Z,0
2022-09-23T03:59:56.572Z,0
2022-09-23T04:01:13.625Z,0
2022-09-23T04:02:30.620Z,0
2022-09-23T04:03:47.557Z,0
2022-09-23T04:05:04.628Z,0
2022-09-23T04:06:21.560Z,0
2022-09-23T04:07:38.626Z,0
2022-09-23T04:08:55.561Z,0
2022-09-23T04:10:12.562Z,0
2022-09-23T04:11:29.565Z,0
2022-09-23T04:12:46.601Z,0.25
2022-09-23T04:14:03.630Z,0
2022-09-23T04:15:20.587Z,0
2022-09-23T04:16:37.627Z,0
2022-09-23T04:17:54.591Z,0
2022-09-23T04:19:11.967Z,0
2022-09-23T04:20:28.606Z,0
2022-09-23T04:21:45.592Z,0
2022-09-23T04:23:02.591Z,0
2022-09-23T04:24:19.590Z,0
2022-09-23T04:25:36.604Z,0
2022-09-23T04:26:53.644Z,0
2022-09-23T04:28:10.597Z,0
2022-09-23T04:29:27.652Z,0
2022-09-23T04:30:44.610Z,0
2022-09-23T04:32:01.639Z,0
2022-09-23T04:33:18.580Z,0
2022-09-23T04:34:35.657Z,0
2022-09-23T04:35:52.693Z,0
2022-09-23T04:37:09.606Z,0
2022-09-23T04:38:26.639Z,0
2022-09-23T04:39:43.652Z,0
2022-09-23T04:41:00.596Z,0
2022-09-23T04:42:17.635Z,0
2022-09-23T04:43:34.637Z,0
2022-09-23T04:44:51.621Z,0
2022-09-23T04:46:08.697Z,0
2022-09-23T04:47:25.664Z,0
2022-09-23T04:48:42.648Z,0
2022-09-23T04:50:00.020Z,0
2022-09-23T04:51:16.699Z,0
2022-09-23T04:52:33.653Z,0
2022-09-23T04:53:50.612Z,0
2022-09-23T04:55:11.017Z,0
2022-09-23T04:56:24.645Z,0
2022-09-23T04:57:41.688Z,0
2022-09-23T04:58:58.760Z,0
2022-09-23T05:00:15.636Z,0
2022-09-23T05:01:32.774Z,0
2022-09-23T05:02:49.657Z,0
2022-09-23T05:04:06.688Z,0
2022-09-23T05:05:23.639Z,0
2022-09-23T05:06:40.669Z,0
2022-09-23T05:07:57.689Z,0
2022-09-23T05:09:14.639Z,0
2022-09-23T05:10:31.650Z,0
2022-09-23T05:11:48.644Z,0
2022-09-23T05:13:05.613Z,0
2022-09-23T05:14:22.905Z,0
2022-09-23T05:15:39.665Z,0
2022-09-23T05:16:56.661Z,0
2022-09-23T05:18:16.003Z,0
2022-09-23T05:19:30.685Z,0
2022-09-23T05:20:47.661Z,0
2022-09-23T05:22:05.772Z,0
2022-09-23T05:23:22.800Z,0
2022-09-23T05:24:39.689Z,0.22
2022-09-23T05:25:56.678Z,0
2022-09-23T05:27:13.664Z,0
2022-09-23T05:28:30.711Z,0
2022-09-23T05:29:47.671Z,0
2022-09-23T05:31:04.719Z,0
2022-09-23T05:32:21.666Z,0
2022-09-23T05:33:38.728Z,0
2022-09-23T05:34:55.667Z,0
2022-09-23T05:36:12.674Z,0
2022-09-23T05:37:29.700Z,0
2022-09-23T05:38:46.713Z,0
2022-09-23T05:40:03.821Z,0
2022-09-23T05:41:20.690Z,0.19
2022-09-23T05:42:37.721Z,0
2022-09-23T05:43:54.715Z,0
2022-09-23T05:45:11.716Z,0
2022-09-23T05:46:28.759Z,0
2022-09-23T05:47:45.728Z,0
2022-09-23T05:49:03.688Z,0
2022-09-23T05:50:19.699Z,0
2022-09-23T05:51:36.719Z,0.24
2022-09-23T05:52:53.762Z,0
2022-09-23T05:54:10.808Z,0.13
2022-09-23T05:55:27.722Z,0.14
2022-09-23T05:56:44.727Z,0
2022-09-23T05:58:01.799Z,0
2022-09-23T05:59:18.733Z,0
2022-09-23T06:00:35.717Z,0
2022-09-23T06:01:56.267Z,0
2022-09-23T06:03:09.844Z,0
2022-09-23T06:04:26.756Z,0
2022-09-23T06:05:43.742Z,0
2022-09-23T06:07:03.450Z,0
2022-09-23T06:08:17.868Z,0
2022-09-23T06:09:36.634Z,0.3
2022-09-23T06:10:54.292Z,0.36
2022-09-23T06:12:08.748Z,0.33
2022-09-23T06:13:25.795Z,0.3
2022-09-23T06:14:42.738Z,0.32
2022-09-23T06:15:59.810Z,0.3
2022-09-23T06:17:16.743Z,0
2022-09-23T06:18:33.777Z,0
2022-09-23T06:19:50.744Z,0
2022-09-23T06:21:07.749Z,0
2022-09-23T06:22:24.764Z,0.14
2022-09-23T06:23:42.174Z,0.16
2022-09-23T06:24:58.767Z,0.21
2022-09-23T06:26:15.803Z,0.22
2022-09-23T06:27:32.641Z,0
2022-09-23T06:28:49.624Z,0.35
2022-09-23T06:30:06.802Z,0.23
2022-09-23T06:31:23.722Z,0.18
2022-09-23T06:32:40.649Z,0.2
2022-09-23T06:34:07.109Z,0
2022-09-23T06:35:24.374Z,0.15
2022-09-23T06:36:41.776Z,0.14
2022-09-23T06:37:49.660Z,0
2022-09-23T06:39:06.800Z,0.36
2022-09-23T06:40:23.728Z,0.51
2022-09-23T06:41:40.730Z,0.29
2022-09-23T06:42:57.668Z,0.21
2022-09-23T06:44:14.683Z,0
2022-09-23T06:45:31.681Z,0
2022-09-23T06:46:48.817Z,0.3
2022-09-23T06:48:05.655Z,0.09
2022-09-23T06:49:22.885Z,0.31
2022-09-23T06:50:39.671Z,0.32
2022-09-23T06:51:57.591Z,0.39
2022-09-23T06:53:14.681Z,0
2022-09-23T06:54:32.794Z,0.41
2022-09-23T06:55:49.700Z,0.39
2022-09-23T06:57:06.740Z,0.51
2022-09-23T06:58:23.692Z,0.56
2022-09-23T06:59:40.665Z,0.46
2022-09-23T07:00:57.694Z,0.48
2022-09-23T07:02:14.796Z,0.4
2022-09-23T07:03:31.744Z,0.36
2022-09-23T07:04:48.775Z,0.35
2022-09-23T07:06:05.700Z,0.63
2022-09-23T07:07:22.702Z,0.52
2022-09-23T07:08:39.726Z,0.32
2022-09-23T07:09:57.556Z,0.78
2022-09-23T07:11:14.694Z,0.52
2022-09-23T07:12:31.751Z,0.21
2022-09-23T07:13:48.747Z,0.49
2022-09-23T07:15:05.763Z,0.23
2022-09-23T07:16:22.763Z,0.44
2022-09-23T07:17:39.730Z,0.52
2022-09-23T07:18:56.756Z,0.6
2022-09-23T07:20:13.741Z,0.41
2022-09-23T07:21:30.728Z,0.48
2022-09-23T07:22:47.731Z,0.83
2022-09-23T07:24:04.723Z,0.19
2022-09-23T07:25:21.793Z,0.26
2022-09-23T07:26:42.301Z,0.35
2022-09-23T07:27:55.797Z,0.61
2022-09-23T07:29:12.748Z,0.64
2022-09-23T07:30:29.777Z,0.8
2022-09-23T07:31:46.800Z,0.51
2022-09-23T07:33:08.044Z,0.07
2022-09-23T07:34:20.761Z,0.13
2022-09-23T07:35:37.735Z,1.04
2022-09-23T07:36:54.777Z,0.64
2022-09-23T07:38:11.777Z,0.76
2022-09-23T07:39:28.787Z,0.13
2022-09-23T07:40:46.693Z,0
2022-09-23T07:42:03.800Z,0.55
2022-09-23T07:43:20.759Z,0.88
2022-09-23T07:44:37.878Z,0.87
2022-09-23T07:45:54.794Z,0.88
2022-09-23T07:47:11.849Z,0.82
2022-09-23T07:48:33.386Z,0.54
2022-09-23T07:49:45.824Z,0.61
2022-09-23T07:51:02.805Z,0.58
2022-09-23T07:52:19.792Z,0.31
2022-09-23T07:53:36.767Z,0.56
2022-09-23T07:54:53.800Z,0.72
2022-09-23T07:56:10.864Z,0.55
2022-09-23T07:57:27.870Z,0.71
2022-09-23T07:58:44.795Z,0.71
2022-09-23T08:00:01.842Z,0.38
2022-09-23T08:01:18.991Z,0.42
2022-09-23T08:02:35.850Z,0.56
2022-09-23T08:03:52.843Z,0.83
2022-09-23T08:05:10.105Z,0.87
2022-09-23T08:06:26.839Z,0.56
2022-09-23T08:07:43.790Z,0.45
2022-09-23T08:09:00.911Z,0.83
2022-09-23T08:10:18.003Z,1.07
2022-09-23T08:11:34.888Z,0.7
2022-09-23T08:12:51.857Z,1.17
2022-09-23T08:14:08.805Z,0.59
2022-09-23T08:15:26.638Z,0.51
2022-09-23T08:16:43.861Z,0.36
2022-09-23T08:18:00.879Z,0.27
2022-09-23T08:19:17.932Z,0.92
2022-09-23T08:20:34.941Z,0.97
2022-09-23T08:21:52.728Z,0.7
2022-09-23T08:23:09.840Z,1
2022-09-23T08:24:26.827Z,0.98
2022-09-23T08:25:46.116Z,0.81
2022-09-23T08:27:00.907Z,0.81
2022-09-23T08:28:17.860Z,0.49
2022-09-23T08:29:34.894Z,0.76
2022-09-23T08:30:52.073Z,0.07
2022-09-23T08:32:08.931Z,0.81
2022-09-23T08:33:25.887Z,0.92
2022-09-23T08:34:42.854Z,0.98
2022-09-23T08:36:00.113Z,0.67
2022-09-23T08:37:17.618Z,0.99
2022-09-23T08:38:34.946Z,0.38
2022-09-23T08:39:52.839Z,0.71
2022-09-23T08:41:09.891Z,0.77
2022-09-23T08:42:26.900Z,0.33
2022-09-23T08:43:43.851Z,0.7
2022-09-23T08:45:00.858Z,0.65
2022-09-23T08:46:17.960Z,0.59
2022-09-23T08:47:35.131Z,0.55
2022-09-23T08:48:51.845Z,0.52
2022-09-23T08:50:08.887Z,0.56
2022-09-23T08:51:25.901Z,0.82
2022-09-23T08:52:42.895Z,0.49
2022-09-23T08:54:00.188Z,0.62
2022-09-23T08:55:16.888Z,0.76
2022-09-23T08:56:35.373Z,0.35
2022-09-23T08:58:08.150Z,0.62
2022-09-23T08:59:07.875Z,1.29
2022-09-23T09:00:25.747Z,0.75
2022-09-23T09:01:42.974Z,0.56
2022-09-23T09:02:59.904Z,0.78
2022-09-23T09:04:17.605Z,0.94
2022-09-23T09:05:34.941Z,1.34
2022-09-23T09:06:53.812Z,0.51
2022-09-23T09:08:08.897Z,0.81
2022-09-23T09:09:25.937Z,0.44
2022-09-23T09:10:42.904Z,0.57
2022-09-23T09:12:00.764Z,0.57
2022-09-23T09:13:17.948Z,0.21
2022-09-23T09:14:34.914Z,0.86
2022-09-23T09:15:54.836Z,0.99
2022-09-23T09:17:08.960Z,0.6
2022-09-23T09:18:26.019Z,0.6
2022-09-23T09:19:42.969Z,0.39
2022-09-23T09:20:59.934Z,0.74
2022-09-23T09:22:17.700Z,0.46
2022-09-23T09:23:35.006Z,1.02
2022-09-23T09:24:51.935Z,0.79
2022-09-23T09:26:08.926Z,0.49
2022-09-23T09:27:25.982Z,0.65
2022-09-23T09:28:42.962Z,1.21
2022-09-23T09:29:59.944Z,1.13
2022-09-23T09:31:17.056Z,0.79
2022-09-23T09:32:33.985Z,0.3
2022-09-23T09:33:50.959Z,0.18
2022-09-23T09:35:07.957Z,0.59
2022-09-23T09:36:25.981Z,0.96
2022-09-23T09:37:43.012Z,0.93
2022-09-23T09:39:00.042Z,0
2022-09-23T09:40:17.775Z,0.52
2022-09-23T09:41:35.016Z,0.19
2022-09-23T09:42:52.183Z,0.12
2022-09-23T09:44:09.022Z,0.36
2022-09-23T09:45:26.060Z,0.8
2022-09-23T09:46:43.071Z,0.49
2022-09-23T09:48:00.005Z,0.31
2022-09-23T09:49:17.012Z,1.17
2022-09-23T09:50:34.783Z,0.59
2022-09-23T09:51:52.944Z,0.75
2022-09-23T09:53:09.986Z,0.8
2022-09-23T09:54:26.961Z,0.64
2022-09-23T09:55:43.954Z,0.61
2022-09-23T09:57:01.018Z,0.62
2022-09-23T09:58:17.966Z,0.62
2022-09-23T09:59:34.982Z,0.72
2022-09-23T10:00:51.994Z,0.93
2022-09-23T10:02:08.957Z,0.81
2022-09-23T10:03:26.008Z,0.56
2022-09-23T10:04:43.213Z,0.28
2022-09-23T10:05:59.991Z,0.6
2022-09-23T10:07:16.960Z,0.57
2022-09-23T10:08:33.973Z,0.8
2022-09-23T10:09:50.983Z,1.24
2022-09-23T10:11:08.047Z,0.28
2022-09-23T10:12:24.967Z,0.8
2022-09-23T10:13:41.960Z,0.87
2022-09-23T10:14:59.535Z,1.09
2022-09-23T10:16:16.204Z,0.38
2022-09-23T10:17:33.047Z,0.59
2022-09-23T10:18:50.002Z,0.62
2022-09-23T10:20:06.997Z,0.66
2022-09-23T10:21:27.688Z,0.29
2022-09-23T10:22:40.986Z,0
2022-09-23T10:23:58.027Z,0.16
2022-09-23T10:25:15.035Z,0.4
2022-09-23T10:26:32.010Z,0.8
2022-09-23T10:27:49.036Z,0.79
2022-09-23T10:29:06.109Z,0.84
2022-09-23T10:30:23.389Z,0.66
2022-09-23T10:31:39.998Z,0.53
2022-09-23T10:32:57.159Z,0.51
2022-09-23T10:34:14.031Z,0.89
2022-09-23T10:35:31.043Z,0.66
2022-09-23T10:36:49.092Z,0.72
2022-09-23T10:38:06.008Z,0
2022-09-23T10:39:23.056Z,0.78
2022-09-23T10:40:40.322Z,0.46
2022-09-23T10:41:57.092Z,0.53
2022-09-23T10:43:14.011Z,0.14
2022-09-23T10:44:31.020Z,0.33
2022-09-23T10:45:48.136Z,0.8
2022-09-23T10:47:05.018Z,1.18
2022-09-23T10:48:22.052Z,0.88
2022-09-23T10:49:39.114Z,0.78
2022-09-23T10:50:56.057Z,1.06
2022-09-23T10:52:13.025Z,1.43
2022-09-23T10:53:30.115Z,0.32
2022-09-23T10:54:47.088Z,0.65
2022-09-23T10:56:04.025Z,1.01
2022-09-23T10:57:21.036Z,1.52
2022-09-23T10:58:38.829Z,0.83
2022-09-23T10:59:56.117Z,1.11
2022-09-23T11:01:13.173Z,1.18
2022-09-23T11:02:30.106Z,1.02
2022-09-23T11:03:47.073Z,1.01
2022-09-23T11:05:04.160Z,1.58
2022-09-23T11:06:21.073Z,0.92
2022-09-23T11:07:38.134Z,1.61
2022-09-23T11:08:55.074Z,1.36
2022-09-23T11:10:23.135Z,1
2022-09-23T11:11:29.062Z,1.26
2022-09-23T11:12:46.139Z,1.47
2022-09-23T11:14:03.097Z,0.91
2022-09-23T11:15:20.109Z,0.89
2022-09-23T11:16:37.162Z,1.13
2022-09-23T11:17:54.603Z,0.86
2022-09-23T11:19:11.082Z,0.46
2022-09-23T11:20:28.838Z,0.54
2022-09-23T11:21:46.161Z,1.64
2022-09-23T11:23:03.752Z,0.58
2022-09-23T11:24:21.107Z,0.48
2022-09-23T11:25:38.186Z,0.72
2022-09-23T11:26:55.132Z,1.2
2022-09-23T11:28:12.125Z,0.55
2022-09-23T11:29:29.176Z,1.06
2022-09-23T11:30:46.184Z,1.27
2022-09-23T11:32:03.230Z,0.51
2022-09-23T11:33:20.199Z,0.92
2022-09-23T11:34:37.156Z,0.98
2022-09-23T11:35:54.156Z,0.41
2022-09-23T11:37:11.120Z,0.67
2022-09-23T11:38:28.157Z,0.2
2022-09-23T11:39:45.144Z,0
2022-09-23T11:41:02.207Z,0.41
2022-09-23T11:42:19.146Z,1.13
2022-09-23T11:43:36.219Z,1.09
2022-09-23T11:44:53.163Z,1.14
2022-09-23T11:46:10.303Z,0.89
2022-09-23T11:47:27.196Z,1.09
2022-09-23T11:48:44.215Z,1.58
2022-09-23T11:50:01.147Z,1.75
2022-09-23T11:51:19.333Z,1.34
2022-09-23T11:52:36.157Z,1.52
2022-09-23T11:53:53.165Z,0.42
2022-09-23T11:55:19.164Z,0.71
2022-09-23T11:56:34.474Z,0.49
2022-09-23T11:57:48.778Z,0.26
2022-09-23T11:59:01.323Z,1.49
2022-09-23T12:00:18.243Z,1.15
2022-09-23T12:01:37.798Z,1.08
2022-09-23T12:03:01.197Z,0.74
2022-09-23T12:04:18.207Z,1.18
2022-09-23T12:05:26.457Z,1.04
2022-09-23T12:06:43.202Z,1.84
2022-09-23T12:08:00.186Z,1.42
2022-09-23T12:09:17.248Z,0.44
2022-09-23T12:10:34.383Z,0.84
2022-09-23T12:11:51.186Z,1.73
2022-09-23T12:13:08.201Z,0.99
2022-09-23T12:14:25.227Z,0.74
2022-09-23T12:15:42.256Z,0.6
2022-09-23T12:16:59.301Z,0.42
2022-09-23T12:18:19.611Z,0.86
2022-09-23T12:19:33.320Z,1.02
2022-09-23T12:20:50.207Z,1.06
2022-09-23T12:22:07.210Z,1.39
2022-09-23T12:23:24.217Z,0.51
2022-09-23T12:24:41.293Z,1.16
2022-09-23T12:25:58.237Z,0.78
2022-09-23T12:27:15.235Z,0.67
2022-09-23T12:28:32.235Z,0.77
2022-09-23T12:29:49.221Z,0.97
2022-09-23T12:31:07.301Z,0.44
2022-09-23T12:32:24.264Z,1.24
2022-09-23T12:33:41.264Z,1.25
2022-09-23T12:34:58.306Z,1.05
2022-09-23T12:36:15.255Z,0.85
2022-09-23T12:37:32.237Z,0.95
2022-09-23T12:38:49.248Z,1.68
2022-09-23T12:40:06.418Z,1.36
2022-09-23T12:41:23.302Z,1.38
2022-09-23T12:42:40.271Z,1.33
2022-09-23T12:43:57.274Z,1.56
2022-09-23T12:45:14.254Z,0.75
2022-09-23T12:46:31.243Z,1.1
2022-09-23T12:47:48.313Z,1.93
2022-09-23T12:49:05.297Z,1.7
2022-09-23T12:50:24.333Z,0.89
2022-09-23T12:51:39.242Z,1.12
2022-09-23T12:52:56.324Z,0.58
2022-09-23T12:54:13.249Z,0.52
2022-09-23T12:55:30.264Z,0.45
2022-09-23T12:56:47.266Z,0
2022-09-23T12:58:04.329Z,0.31
2022-09-23T12:59:21.271Z,0.82
2022-09-23T13:00:38.324Z,1.32
2022-09-23T13:01:55.430Z,1.35
2022-09-23T13:03:12.362Z,1.11
2022-09-23T13:04:29.353Z,1.31
2022-09-23T13:05:46.308Z,1.17
2022-09-23T13:07:03.495Z,0.91
2022-09-23T13:08:20.339Z,0.9
2022-09-23T13:09:37.324Z,0.68
2022-09-23T13:10:54.343Z,0.59
2022-09-23T13:12:11.358Z,0.93
2022-09-23T13:13:28.305Z,0.95
2022-09-23T13:14:45.313Z,0.9
2022-09-23T13:16:02.435Z,0.97
2022-09-23T13:17:19.327Z,0.84
2022-09-23T13:18:36.312Z,0.53
2022-09-23T13:19:53.344Z,0.3
2022-09-23T13:21:10.451Z,0.67
2022-09-23T13:22:27.366Z,0.38
2022-09-23T13:23:44.357Z,0.27
2022-09-23T13:25:01.333Z,0.36
2022-09-23T13:26:18.837Z,0.09
2022-09-23T13:27:35.339Z,0.4
2022-09-23T13:28:52.348Z,0.31
2022-09-23T13:30:09.358Z,0.15
2022-09-23T13:31:26.391Z,0.67
2022-09-23T13:32:43.366Z,0.74
2022-09-23T13:34:00.402Z,0.46
2022-09-23T13:35:17.422Z,0.3
2022-09-23T13:36:34.327Z,0.81
2022-09-23T13:37:51.342Z,0.99
2022-09-23T13:39:08.357Z,0.64
2022-09-23T13:40:25.399Z,1.46
2022-09-23T13:41:42.356Z,2
2022-09-23T13:42:59.382Z,2.93
2022-09-23T13:44:16.354Z,1.38
2022-09-23T13:45:33.470Z,0.99
2022-09-23T13:46:50.358Z,1.27
2022-09-23T13:48:07.458Z,1.23
2022-09-23T13:49:24.363Z,1.07
2022-09-23T13:50:41.422Z,1.24
2022-09-23T13:51:58.382Z,1.28
2022-09-23T13:53:15.384Z,1.25
2022-09-23T13:54:32.377Z,0.45
2022-09-23T13:55:52.422Z,0.53
2022-09-23T13:57:06.436Z,0.45
2022-09-23T13:58:23.375Z,0.19
2022-09-23T13:59:40.402Z,0.67
2022-09-23T14:00:57.412Z,0.54
2022-09-23T14:02:14.468Z,0.33
2022-09-23T14:03:36.045Z,0.75
2022-09-23T14:04:48.429Z,0.63
2022-09-23T14:06:05.427Z,1.52
2022-09-23T14:07:22.418Z,2.25
2022-09-23T14:08:39.411Z,1.89
2022-09-23T14:09:56.442Z,1.34
2022-09-23T14:11:13.414Z,1.09
2022-09-23T14:12:30.476Z,1.48
2022-09-23T14:13:47.536Z,1.04
2022-09-23T14:15:04.608Z,0.86
2022-09-23T14:16:21.494Z,1.1
2022-09-23T14:17:38.606Z,0.29
2022-09-23T14:18:55.455Z,0.65
2022-09-23T14:20:12.473Z,0.55
2022-09-23T14:21:30.531Z,0.5
2022-09-23T14:22:47.483Z,0.38
2022-09-23T14:24:04.475Z,0.73
2022-09-23T14:25:21.447Z,0.66
2022-09-23T14:26:38.931Z,1.25
2022-09-23T14:27:59.827Z,0.67
2022-09-23T14:29:12.545Z,0.39
2022-09-23T14:30:29.580Z,0.49
2022-09-23T14:31:48.435Z,0.73
2022-09-23T14:33:08.587Z,0.47
2022-09-23T14:34:22.517Z,0.27
2022-09-23T14:35:39.448Z,0.27
2022-09-23T14:36:56.535Z,0.44
2022-09-23T14:38:13.456Z,0.44
2022-09-23T14:39:30.482Z,0.52
2022-09-23T14:40:47.514Z,0.91
2022-09-23T14:42:04.535Z,0.78
2022-09-23T14:43:21.505Z,0.6
2022-09-23T14:44:38.477Z,0.22
2022-09-23T14:45:55.543Z,0.05
2022-09-23T14:47:12.601Z,0.66
2022-09-23T14:48:29.724Z,0.6
2022-09-23T14:49:46.982Z,0.15
2022-09-23T14:51:03.594Z,0.6
2022-09-23T14:52:20.527Z,0
2022-09-23T14:53:37.586Z,0.53
2022-09-23T14:54:54.494Z,0.67
2022-09-23T14:56:11.514Z,0.88
2022-09-23T14:57:28.660Z,0.96
2022-09-23T14:58:49.592Z,0.63
2022-09-23T15:00:03.025Z,0.85
2022-09-23T15:01:21.296Z,1.18
2022-09-23T15:02:39.352Z,1.24
2022-09-23T15:03:57.084Z,1.18
2022-09-23T15:05:14.681Z,0.97
2022-09-23T15:06:32.515Z,1.1
2022-09-23T15:07:50.121Z,1.1
2022-09-23T15:09:07.569Z,1.12
2022-09-23T15:10:24.505Z,0.96
2022-09-23T15:11:41.620Z,0.83
2022-09-23T15:12:58.551Z,1
2022-09-23T15:14:36.477Z,0.83
2022-09-23T15:15:32.524Z,0.85
2022-09-23T15:16:49.669Z,0.77
2022-09-23T15:18:06.520Z,0.43
2022-09-23T15:19:23.923Z,0.28
2022-09-23T15:20:40.509Z,0.5
2022-09-23T15:21:57.633Z,0.64
2022-09-23T15:23:14.610Z,0.62
2022-09-23T15:24:31.542Z,0.25
2022-09-23T15:25:48.581Z,0.33
2022-09-23T15:27:05.574Z,0.47
2022-09-23T15:28:22.588Z,0.74
2022-09-23T15:29:39.536Z,0.41
2022-09-23T15:30:56.597Z,0.52
2022-09-23T15:32:13.549Z,0.21
2022-09-23T15:33:30.586Z,0.33
2022-09-23T15:34:47.572Z,0
2022-09-23T15:36:04.558Z,0.23
2022-09-23T15:37:21.585Z,0.12
2022-09-23T15:38:38.608Z,0
2022-09-23T15:39:55.575Z,0.34
2022-09-23T15:41:12.571Z,0.53
2022-09-23T15:42:29.567Z,0.31
2022-09-23T15:43:46.604Z,0.26
2022-09-23T15:45:03.683Z,0
2022-09-23T15:46:20.683Z,0
2022-09-23T15:47:37.579Z,0
2022-09-23T15:48:58.400Z,0
2022-09-23T15:50:11.585Z,0
2022-09-23T15:51:28.630Z,0
2022-09-23T15:52:45.617Z,0
2022-09-23T15:54:02.660Z,0
2022-09-23T15:55:19.597Z,0
2022-09-23T15:56:36.656Z,0
2022-09-23T15:57:53.636Z,0
2022-09-23T15:59:10.596Z,0
2022-09-23T16:00:27.666Z,0
2022-09-23T16:01:44.706Z,0
2022-09-23T16:03:01.640Z,0
2022-09-23T16:04:18.639Z,0
2022-09-23T16:05:35.608Z,0
2022-09-23T16:06:52.618Z,0
2022-09-23T16:08:09.738Z,0
2022-09-23T16:09:26.697Z,0
2022-09-23T16:10:43.623Z,0
2022-09-23T16:12:00.672Z,0
2022-09-23T16:13:17.649Z,0
2022-09-23T16:14:34.626Z,0
2022-09-23T16:15:51.624Z,0
2022-09-23T16:17:08.660Z,0
2022-09-23T16:18:25.647Z,0
2022-09-23T16:19:42.635Z,0
2022-09-23T16:20:59.709Z,0
2022-09-23T16:22:16.675Z,0
2022-09-23T16:23:34.428Z,0
2022-09-23T16:24:50.831Z,0
2022-09-23T16:26:07.711Z,0
2022-09-23T16:27:24.743Z,0
2022-09-23T16:28:41.678Z,0
2022-09-23T16:29:58.666Z,0
2022-09-23T16:31:15.781Z,0
2022-09-23T16:32:32.683Z,0
2022-09-23T16:33:49.705Z,0
2022-09-23T16:35:06.668Z,0
2022-09-23T16:36:23.701Z,0
2022-09-23T16:37:40.661Z,0
2022-09-23T16:38:57.710Z,0
2022-09-23T16:40:14.793Z,0
2022-09-23T16:41:31.717Z,0
2022-09-23T16:42:48.689Z,0
2022-09-23T16:44:05.687Z,0
2022-09-23T16:45:22.699Z,0
2022-09-23T16:46:39.678Z,0
2022-09-23T16:47:56.741Z,0
2022-09-23T16:49:13.699Z,0
2022-09-23T16:50:30.738Z,0
2022-09-23T16:51:47.717Z,0
2022-09-23T16:53:04.738Z,0
2022-09-23T16:54:21.678Z,0
2022-09-23T16:55:38.757Z,0.23
2022-09-23T16:56:55.708Z,0
2022-09-23T16:58:12.766Z,0
2022-09-23T16:59:29.752Z,0
2022-09-23T17:00:46.809Z,0
2022-09-23T17:02:03.826Z,0
2022-09-23T17:03:20.742Z,0
2022-09-23T17:04:37.802Z,0
2022-09-23T17:05:54.775Z,0
2022-09-23T17:07:11.702Z,0
2022-09-23T17:08:28.717Z,0
2022-09-23T17:09:45.767Z,0
2022-09-23T17:11:02.795Z,0
2022-09-23T17:12:19.711Z,0
2022-09-23T17:13:36.739Z,0
2022-09-23T17:14:53.758Z,0
2022-09-23T17:16:10.843Z,0
2022-09-23T17:17:27.766Z,0
2022-09-23T17:18:44.723Z,0
2022-09-23T17:20:01.758Z,0
2022-09-23T17:21:18.751Z,0
2022-09-23T17:22:35.734Z,0
2022-09-23T17:23:52.762Z,0
2022-09-23T17:25:09.773Z,0
2022-09-23T17:26:26.781Z,0
2022-09-23T17:27:43.764Z,0
2022-09-23T17:29:00.797Z,0
2022-09-23T17:30:17.804Z,0
2022-09-23T17:31:34.799Z,0
2022-09-23T17:32:51.760Z,0
2022-09-23T17:34:08.798Z,0
2022-09-23T17:35:25.766Z,0
2022-09-23T17:36:42.790Z,0
2022-09-23T17:37:59.751Z,0
2022-09-23T17:39:16.759Z,0
2022-09-23T17:40:33.816Z,0
2022-09-23T17:41:50.805Z,0
2022-09-23T17:43:07.780Z,0
2022-09-23T17:44:24.790Z,0
2022-09-23T17:45:41.893Z,0
2022-09-23T17:46:58.846Z,0
2022-09-23T17:48:15.797Z,0
2022-09-23T17:49:32.777Z,0
2022-09-23T17:50:49.795Z,0
2022-09-23T17:52:06.977Z,0
2022-09-23T17:53:23.828Z,0
2022-09-23T17:54:40.824Z,0
2022-09-23T17:55:57.849Z,0
2022-09-23T17:57:14.824Z,0
2022-09-23T17:58:31.879Z,0
2022-09-23T17:59:48.794Z,0
2022-09-23T18:01:06.012Z,0
2022-09-23T18:02:22.948Z,0